Flight Track Log - Related Links

Times and Time Zones

All times are in EDT time to prevent confusion due to time zone crossing. See the N1944E flight status page for this flight to view local times or setup timezone preferences in your user account.

Time Position Orientation Groundspeed Altitude Reporting Facility
EDT Latitude Longitude Course Direction KTS MPH feet Rate Location/Type
Mon 08:32:09 AM 44.5367 -109.0297 238° Southwest 161 185 7,800  Level Salt Lake Center
Mon 08:33:10 AM 44.5003 -109.0578 209° Southwest 156 180 8,600 843 Climbing Salt Lake Center
Mon 08:34:10 AM 44.4772 -109.1061 236° Southwest 151 174 9,500 893 Climbing Salt Lake Center
Mon 08:35:11 AM 44.4581 -109.1539 241° Southwest 147 169 10,400 893 Climbing Salt Lake Center
Mon 08:36:11 AM 44.4342 -109.1978 233° Southwest 143 165 11,300 793 Climbing Salt Lake Center
Mon 08:37:00 AM 44.3722 -109.2780 238° Southwest  Level FlightAware Approximate
Mon 08:37:12 AM 44.4100 -109.2400 231° Southwest 141 162 12,000  Level Salt Lake Center
Mon 08:38:13 AM 44.3858 -109.2828 232° Southwest 140 161 12,900 843 Climbing Salt Lake Center
Mon 08:39:13 AM 44.3617 -109.3253 232° Southwest 140 161 13,700 793 Climbing Salt Lake Center
Mon 08:40:14 AM 44.3431 -109.3733 242° Southwest 140 161 14,500 787 Climbing Salt Lake Center
Mon 08:41:15 AM 44.3197 -109.4161 233° Southwest 138 159 15,300 744 Climbing Salt Lake Center
Mon 08:42:15 AM 44.2947 -109.4594 231° Southwest 141 162 16,000 298 Climbing Salt Lake Center
Mon 08:43:16 AM 44.2650 -109.5144 233° Southwest 160 184 15,900 49 Descending Salt Lake Center
Mon 08:44:17 AM 44.2331 -109.5753 234° Southwest 171 197 16,100 50 Climbing Salt Lake Center
Mon 08:45:17 AM 44.2061 -109.6275 234° Southwest 173 199 16,000  Descending Salt Lake Center
Mon 08:46:18 AM 44.1775 -109.6792 232° Southwest 175 201 16,100  Climbing Salt Lake Center
Mon 08:47:19 AM 44.1453 -109.7397 233° Southwest 174 200 16,000 -295 Descending Salt Lake Center
Mon 08:48:20 AM 44.1164 -109.7906 232° Southwest 175 201 15,500 -545 Descending Salt Lake Center
Mon 08:49:20 AM 44.0856 -109.8508 235° Southwest 190 219 14,900 -347 Descending Salt Lake Center
Mon 08:50:21 AM 44.0514 -109.9144 233° Southwest 187 215 14,800 -49 Descending Salt Lake Center
Mon 08:51:22 AM 44.0244 -109.9658 234° Southwest 176 203 14,800  Level Salt Lake Center
Mon 08:52:22 AM 43.9983 -110.0142 233° Southwest 168 193 14,800 50 Level Salt Lake Center
Mon 08:53:23 AM 43.9700 -110.0714 235° Southwest 163 188 14,900  Climbing Salt Lake Center
Mon 08:54:24 AM 43.9453 -110.1189 234° Southwest 160 184 14,800 -198 Descending Salt Lake Center
Mon 08:55:24 AM 43.9186 -110.1667 232° Southwest 162 186 14,500 -545 Descending Salt Lake Center
Mon 08:56:25 AM 43.8858 -110.2281 233° Southwest 170 196 13,700 -732 Descending Salt Lake Center
Mon 08:57:27 AM 43.8575 -110.2861 236° Southwest 179 206 13,000 -344 Descending Salt Lake Center
Mon 08:58:27 AM 43.8294 -110.3394 234° Southwest 182 209 13,000 -496 Level Salt Lake Center
Mon 08:59:28 AM 43.8225 -110.4100 262° West 185 213 12,000 -893 Descending Salt Lake Center
Mon 09:00:28 AM 43.8189 -110.4647 265° West 181 208 11,200 -645 Descending Salt Lake Center
Mon 09:01:29 AM 43.8133 -110.5419 264° West 173 199 10,700 -787 Descending Salt Lake Center
Mon 09:02:30 AM 43.8039 -110.6047 258° West 167 192 9,600 -984 Descending Salt Lake Center
Mon 09:03:31 AM 43.7778 -110.6539 234° Southwest 173 199 8,700 -934 Descending Salt Lake Center
Mon 09:04:32 AM 43.7389 -110.6736 200° South 155 178 7,700 -595 Descending Salt Lake Center
Mon 09:05:32 AM 43.6978 -110.6944 200° South 157 181 7,500 -146 Descending Salt Lake Center
Mon 09:06:35 AM 43.6622 -110.7108 198° South 148 170 7,400 -344 Descending Salt Lake Center
Mon 09:07:34 AM 43.6292 -110.7269 199° South 136 157 6,800 -450 Descending Salt Lake Center
Mon 09:08:35 AM 43.6033 -110.7403 200° South 129 148 6,500 -295 Descending Salt Lake Center

Login

Don't have an account? Register now (free) for customized features, flight alerts, and more!